Fram — LADA7 — position and weather

sailwx.info

Track history (hours):
 
Tides and Currents Weather Stations Pressure Air Temp Water Temp Dewpoint Dewpoint Depression Visibility Wind Speed Wind Dir Waves Ship Positions

Fram

Last reported at 2018-Sep-24 07:20 UTC. Time now 2018-Sep-24 21:01 UTC.
Position N 63°27' W 051°43'.

Length 114 m; draft 5.1 m.

Type: Ship. MMSI: 258932000.

Date/timePositionNaut miles runAvg speedWind from/ knotsBaromVisibWave heightAir tempDewpointWater temp
2018-Sep-24 07:20N 63°27' W 051°43'310.9
2018-Sep-24 07:03N 63°30' W 051°47'0 9.2
2018-Sep-24 07:00N 63°30' W 051°47'510.7
2018-Sep-24 06:30N 63°35' W 051°53'511.0
2018-Sep-24 06:03N 63°39' W 051°59'011.1
2018-Sep-24 06:00N 63°40' W 051°59'5 9.9
2018-Sep-24 05:30N 63°44' W 052°05'4 9.9
2018-Sep-24 05:03N 63°48' W 052°10'010.7
2018-Sep-24 05:00N 63°48' W 052°10'510.0
2018-Sep-24 04:30N 63°53' W 052°16'4 9.6
2018-Sep-24 04:03N 63°56' W 052°21'0 9.9
2018-Sep-24 04:00N 63°57' W 052°21'5 9.5
2018-Sep-24 03:30N 64°01' W 052°27'4 9.5
2018-Sep-24 03:03N 64°05' W 052°28'110.2
2018-Sep-24 03:00N 64°06' W 052°29'5 9.7
2018-Sep-24 02:30N 64°10' W 052°30'4 9.7
2018-Sep-24 02:03N 64°15' W 052°32'1 9.9
2018-Sep-24 02:00N 64°15' W 052°32'510.3
2018-Sep-24 01:30N 64°20' W 052°34'510.3
2018-Sep-24 01:03N 64°25' W 052°35'110.3
2018-Sep-24 01:00N 64°25' W 052°35'510.6
2018-Sep-24 00:30N 64°31' W 052°37'510.8
2018-Sep-24 00:03N 64°36' W 052°39'111.0
2018-Sep-24 00:00N 64°36' W 052°39'511.1
2018-Sep-23 23:30N 64°42' W 052°41'511.4
2018-Sep-23 23:04N 64°47' W 052°43'111.6
2018-Sep-23 23:00N 64°47' W 052°43'611.4
2018-Sep-23 22:30N 64°53' W 052°45'511.5
2018-Sep-23 22:03N 64°58' W 052°47'111.1
2018-Sep-23 22:00N 64°59' W 052°47'611.4
2018-Sep-23 21:30N 65°04' W 052°49'511.7
2018-Sep-23 21:04N 65°09' W 052°51'110.8
2018-Sep-23 21:00N 65°10' W 052°51'611.5
2018-Sep-23 20:30N 65°16' W 052°53'611.8
2018-Sep-23 20:02N 65°21' W 052°54'010.3
2018-Sep-23 20:00N 65°21' W 052°54'44 4.2
2018-Sep-23 09:40N 66°01' W 053°40'  
Track history (hours):
 
Tides and Currents Weather Stations Pressure Air Temp Water Temp Dewpoint Dewpoint Depression Visibility Wind Speed Wind Dir Waves Ship Positions

Fram

Last reported at 2018-Sep-24 07:20 UTC. Time now 2018-Sep-24 21:01 UTC.
Position N 63°27' W 051°43'.

Length 114 m; draft 5.1 m.

Type: Ship. MMSI: 258932000.

Date/timePositionNaut miles runAvg speedWind from/ knotsBaromVisibWave heightAir tempDewpointWater temp
2018-Sep-24 07:20N 63°27' W 051°43'310.9
2018-Sep-24 07:03N 63°30' W 051°47'0 9.2
2018-Sep-24 07:00N 63°30' W 051°47'510.7
2018-Sep-24 06:30N 63°35' W 051°53'511.0
2018-Sep-24 06:03N 63°39' W 051°59'011.1
2018-Sep-24 06:00N 63°40' W 051°59'5 9.9
2018-Sep-24 05:30N 63°44' W 052°05'4 9.9
2018-Sep-24 05:03N 63°48' W 052°10'010.7
2018-Sep-24 05:00N 63°48' W 052°10'510.0
2018-Sep-24 04:30N 63°53' W 052°16'4 9.6
2018-Sep-24 04:03N 63°56' W 052°21'0 9.9
2018-Sep-24 04:00N 63°57' W 052°21'5 9.5
2018-Sep-24 03:30N 64°01' W 052°27'4 9.5
2018-Sep-24 03:03N 64°05' W 052°28'110.2
2018-Sep-24 03:00N 64°06' W 052°29'5 9.7
2018-Sep-24 02:30N 64°10' W 052°30'4 9.7
2018-Sep-24 02:03N 64°15' W 052°32'1 9.9
2018-Sep-24 02:00N 64°15' W 052°32'510.3
2018-Sep-24 01:30N 64°20' W 052°34'510.3
2018-Sep-24 01:03N 64°25' W 052°35'110.3
2018-Sep-24 01:00N 64°25' W 052°35'510.6
2018-Sep-24 00:30N 64°31' W 052°37'510.8
2018-Sep-24 00:03N 64°36' W 052°39'111.0
2018-Sep-24 00:00N 64°36' W 052°39'511.1
2018-Sep-23 23:30N 64°42' W 052°41'511.4
2018-Sep-23 23:04N 64°47' W 052°43'111.6
2018-Sep-23 23:00N 64°47' W 052°43'611.4
2018-Sep-23 22:30N 64°53' W 052°45'511.5
2018-Sep-23 22:03N 64°58' W 052°47'111.1
2018-Sep-23 22:00N 64°59' W 052°47'611.4
2018-Sep-23 21:30N 65°04' W 052°49'511.7
2018-Sep-23 21:04N 65°09' W 052°51'110.8
2018-Sep-23 21:00N 65°10' W 052°51'611.5
2018-Sep-23 20:30N 65°16' W 052°53'611.8
2018-Sep-23 20:02N 65°21' W 052°54'010.3
2018-Sep-23 20:00N 65°21' W 052°54'44 4.2
2018-Sep-23 09:40N 66°01' W 053°40'  

Dump ship's entire track history